sensor_id;sensor_type;location;lat;lon;timestamp;temperature;humidity
60293;DHT22;52402;52.670;6.750;2022-10-16T00:00:26;12.80;99.90
60293;DHT22;52402;52.670;6.750;2022-10-16T00:02:52;12.80;99.90
60293;DHT22;52402;52.670;6.750;2022-10-16T00:05:17;12.80;99.90
60293;DHT22;52402;52.670;6.750;2022-10-16T00:07:43;12.70;99.90
60293;DHT22;52402;52.670;6.750;2022-10-16T00:10:09;12.70;99.90
60293;DHT22;52402;52.670;6.750;2022-10-16T00:12:34;12.70;99.90
60293;DHT22;52402;52.670;6.750;2022-10-16T00:15:00;12.70;99.90
60293;DHT22;52402;52.670;6.750;2022-10-16T00:17:25;12.70;99.90
60293;DHT22;52402;52.670;6.750;2022-10-16T00:19:51;12.70;99.90
60293;DHT22;52402;52.670;6.750;2022-10-16T00:22:16;12.70;99.90
60293;DHT22;52402;52.670;6.750;2022-10-16T00:24:42;12.70;99.90
60293;DHT22;52402;52.670;6.750;2022-10-16T00:27:08;12.70;99.90
60293;DHT22;52402;52.670;6.750;2022-10-16T00:29:33;12.70;99.90
60293;DHT22;52402;52.670;6.750;2022-10-16T00:31:59;12.70;99.90
60293;DHT22;52402;52.670;6.750;2022-10-16T00:34:24;12.60;99.90
60293;DHT22;52402;52.670;6.750;2022-10-16T00:36:50;12.70;99.90
60293;DHT22;52402;52.670;6.750;2022-10-16T00:39:15;12.60;99.90
60293;DHT22;52402;52.670;6.750;2022-10-16T00:41:41;12.60;99.90
60293;DHT22;52402;52.670;6.750;2022-10-16T00:49:50;12.60;99.90
60293;DHT22;52402;52.670;6.750;2022-10-16T00:52:17;12.60;99.90
60293;DHT22;52402;52.670;6.750;2022-10-16T00:54:43;12.60;99.90
60293;DHT22;52402;52.670;6.750;2022-10-16T00:57:10;12.50;99.90
60293;DHT22;52402;52.670;6.750;2022-10-16T00:59:38;12.50;99.90
60293;DHT22;52402;52.670;6.750;2022-10-16T01:02:07;12.60;99.90
60293;DHT22;52402;52.670;6.750;2022-10-16T01:04:46;12.60;99.90
60293;DHT22;52402;52.670;6.750;2022-10-16T01:07:20;12.60;99.90
60293;DHT22;52402;52.670;6.750;2022-10-16T01:12:54;12.60;99.90
60293;DHT22;52402;52.670;6.750;2022-10-16T01:15:42;12.60;99.90
60293;DHT22;52402;52.670;6.750;2022-10-16T01:20:57;12.60;99.90
60293;DHT22;52402;52.670;6.750;2022-10-16T01:26:20;12.50;99.90
60293;DHT22;52402;52.670;6.750;2022-10-16T01:28:51;12.50;99.90
60293;DHT22;52402;52.670;6.750;2022-10-16T01:31:24;12.50;99.90
60293;DHT22;52402;52.670;6.750;2022-10-16T01:34:12;12.50;99.90
60293;DHT22;52402;52.670;6.750;2022-10-16T01:36:45;12.40;99.90
60293;DHT22;52402;52.670;6.750;2022-10-16T01:39:13;12.40;99.90
60293;DHT22;52402;52.670;6.750;2022-10-16T01:41:44;12.40;99.90
60293;DHT22;52402;52.670;6.750;2022-10-16T01:44:20;12.40;99.90
60293;DHT22;52402;52.670;6.750;2022-10-16T01:46:51;12.50;99.90
60293;DHT22;52402;52.670;6.750;2022-10-16T01:49:19;12.40;99.90
60293;DHT22;52402;52.670;6.750;2022-10-16T01:51:47;12.40;99.90
60293;DHT22;52402;52.670;6.750;2022-10-16T01:54:15;12.40;99.90
60293;DHT22;52402;52.670;6.750;2022-10-16T01:56:42;12.40;99.90
60293;DHT22;52402;52.670;6.750;2022-10-16T01:59:15;12.50;99.90
60293;DHT22;52402;52.670;6.750;2022-10-16T02:01:45;12.40;99.90
60293;DHT22;52402;52.670;6.750;2022-10-16T02:04:23;12.40;99.90
60293;DHT22;52402;52.670;6.750;2022-10-16T02:06:49;12.40;99.90
60293;DHT22;52402;52.670;6.750;2022-10-16T02:09:15;12.40;99.90
60293;DHT22;52402;52.670;6.750;2022-10-16T02:11:43;12.40;99.90
60293;DHT22;52402;52.670;6.750;2022-10-16T02:14:09;12.50;99.90
60293;DHT22;52402;52.670;6.750;2022-10-16T02:16:38;12.50;99.90
60293;DHT22;52402;52.670;6.750;2022-10-16T02:19:05;12.50;99.90
60293;DHT22;52402;52.670;6.750;2022-10-16T02:21:48;12.50;99.90
60293;DHT22;52402;52.670;6.750;2022-10-16T02:24:33;12.50;99.90
60293;DHT22;52402;52.670;6.750;2022-10-16T02:30:13;12.50;99.90
60293;DHT22;52402;52.670;6.750;2022-10-16T02:32:41;12.50;99.90
60293;DHT22;52402;52.670;6.750;2022-10-16T02:35:08;12.50;99.90
60293;DHT22;52402;52.670;6.750;2022-10-16T02:37:34;12.60;99.90
60293;DHT22;52402;52.670;6.750;2022-10-16T02:40:01;12.60;99.90
60293;DHT22;52402;52.670;6.750;2022-10-16T02:42:36;12.70;99.90
60293;DHT22;52402;52.670;6.750;2022-10-16T02:45:03;12.70;99.90
60293;DHT22;52402;52.670;6.750;2022-10-16T02:47:29;12.70;99.90
60293;DHT22;52402;52.670;6.750;2022-10-16T02:49:54;12.80;99.90
60293;DHT22;52402;52.670;6.750;2022-10-16T02:52:20;12.80;99.90
60293;DHT22;52402;52.670;6.750;2022-10-16T02:54:45;12.80;99.90
60293;DHT22;52402;52.670;6.750;2022-10-16T02:57:11;12.80;99.90
60293;DHT22;52402;52.670;6.750;2022-10-16T02:59:37;12.80;99.90
60293;DHT22;52402;52.670;6.750;2022-10-16T03:02:03;12.80;99.90
60293;DHT22;52402;52.670;6.750;2022-10-16T03:04:28;12.80;99.90
60293;DHT22;52402;52.670;6.750;2022-10-16T03:06:54;12.90;99.90
60293;DHT22;52402;52.670;6.750;2022-10-16T03:09:19;12.90;99.90
60293;DHT22;52402;52.670;6.750;2022-10-16T03:11:45;12.90;99.90
60293;DHT22;52402;52.670;6.750;2022-10-16T03:14:11;12.90;99.90
60293;DHT22;52402;52.670;6.750;2022-10-16T03:16:36;12.90;99.90
60293;DHT22;52402;52.670;6.750;2022-10-16T03:19:02;12.90;99.90
60293;DHT22;52402;52.670;6.750;2022-10-16T03:21:27;12.90;99.90
60293;DHT22;52402;52.670;6.750;2022-10-16T03:23:53;13.00;99.90
60293;DHT22;52402;52.670;6.750;2022-10-16T03:26:19;13.00;99.90
60293;DHT22;52402;52.670;6.750;2022-10-16T03:28:44;13.00;99.90
60293;DHT22;52402;52.670;6.750;2022-10-16T03:31:10;13.00;99.90
60293;DHT22;52402;52.670;6.750;2022-10-16T03:33:35;13.00;99.90
60293;DHT22;52402;52.670;6.750;2022-10-16T03:36:01;13.00;99.90
60293;DHT22;52402;52.670;6.750;2022-10-16T03:38:27;12.90;99.90
60293;DHT22;52402;52.670;6.750;2022-10-16T03:40:52;13.00;99.90
60293;DHT22;52402;52.670;6.750;2022-10-16T03:43:18;12.90;99.90
60293;DHT22;52402;52.670;6.750;2022-10-16T03:45:43;12.90;99.90
60293;DHT22;52402;52.670;6.750;2022-10-16T03:48:09;12.90;99.90
60293;DHT22;52402;52.670;6.750;2022-10-16T03:50:34;12.90;99.90
60293;DHT22;52402;52.670;6.750;2022-10-16T03:53:00;12.90;99.90
60293;DHT22;52402;52.670;6.750;2022-10-16T03:55:26;12.90;99.90
60293;DHT22;52402;52.670;6.750;2022-10-16T03:57:51;12.90;99.90
60293;DHT22;52402;52.670;6.750;2022-10-16T04:00:17;12.80;99.90
60293;DHT22;52402;52.670;6.750;2022-10-16T04:02:42;12.80;99.90
60293;DHT22;52402;52.670;6.750;2022-10-16T04:05:08;12.80;99.90
60293;DHT22;52402;52.670;6.750;2022-10-16T04:07:34;12.80;99.90
60293;DHT22;52402;52.670;6.750;2022-10-16T04:09:59;12.80;99.90
60293;DHT22;52402;52.670;6.750;2022-10-16T04:12:26;12.80;99.90
60293;DHT22;52402;52.670;6.750;2022-10-16T04:14:51;12.80;99.90
60293;DHT22;52402;52.670;6.750;2022-10-16T04:17:17;12.80;99.90
60293;DHT22;52402;52.670;6.750;2022-10-16T04:19:43;12.80;99.90
60293;DHT22;52402;52.670;6.750;2022-10-16T04:22:08;12.80;99.90
60293;DHT22;52402;52.670;6.750;2022-10-16T04:24:34;12.80;99.90
60293;DHT22;52402;52.670;6.750;2022-10-16T04:27:00;12.80;99.90
60293;DHT22;52402;52.670;6.750;2022-10-16T04:29:25;12.80;99.90
60293;DHT22;52402;52.670;6.750;2022-10-16T04:31:51;12.80;99.90
60293;DHT22;52402;52.670;6.750;2022-10-16T04:34:16;12.80;99.90
60293;DHT22;52402;52.670;6.750;2022-10-16T04:36:42;12.80;99.90
60293;DHT22;52402;52.670;6.750;2022-10-16T04:39:08;12.70;99.90
60293;DHT22;52402;52.670;6.750;2022-10-16T04:41:34;12.80;99.90
60293;DHT22;52402;52.670;6.750;2022-10-16T04:43:59;12.70;99.90
60293;DHT22;52402;52.670;6.750;2022-10-16T04:46:25;12.70;99.90
60293;DHT22;52402;52.670;6.750;2022-10-16T04:48:50;12.70;99.90
60293;DHT22;52402;52.670;6.750;2022-10-16T04:51:16;12.70;99.90
60293;DHT22;52402;52.670;6.750;2022-10-16T04:53:41;12.70;99.90
60293;DHT22;52402;52.670;6.750;2022-10-16T04:56:07;12.60;99.90
60293;DHT22;52402;52.670;6.750;2022-10-16T04:58:33;12.70;99.90
60293;DHT22;52402;52.670;6.750;2022-10-16T05:00:58;12.60;99.90
60293;DHT22;52402;52.670;6.750;2022-10-16T05:03:24;12.60;99.90
60293;DHT22;52402;52.670;6.750;2022-10-16T05:05:49;12.60;99.90
60293;DHT22;52402;52.670;6.750;2022-10-16T05:08:16;12.60;99.90
60293;DHT22;52402;52.670;6.750;2022-10-16T05:10:42;12.60;99.90
60293;DHT22;52402;52.670;6.750;2022-10-16T05:13:08;12.60;99.90
60293;DHT22;52402;52.670;6.750;2022-10-16T05:15:34;12.60;99.90
60293;DHT22;52402;52.670;6.750;2022-10-16T05:17:59;12.60;99.90
60293;DHT22;52402;52.670;6.750;2022-10-16T05:20:25;12.60;99.90
60293;DHT22;52402;52.670;6.750;2022-10-16T05:22:51;12.60;99.90
60293;DHT22;52402;52.670;6.750;2022-10-16T05:25:16;12.50;99.90
60293;DHT22;52402;52.670;6.750;2022-10-16T05:27:42;12.60;99.90
60293;DHT22;52402;52.670;6.750;2022-10-16T05:30:08;12.50;99.90
60293;DHT22;52402;52.670;6.750;2022-10-16T05:32:34;12.50;99.90
60293;DHT22;52402;52.670;6.750;2022-10-16T05:34:59;12.40;99.90
60293;DHT22;52402;52.670;6.750;2022-10-16T05:37:27;12.40;99.90
60293;DHT22;52402;52.670;6.750;2022-10-16T05:39:53;12.40;99.90
60293;DHT22;52402;52.670;6.750;2022-10-16T05:42:18;12.40;99.90
60293;DHT22;52402;52.670;6.750;2022-10-16T05:44:44;12.40;99.90
60293;DHT22;52402;52.670;6.750;2022-10-16T05:47:09;12.40;99.90
60293;DHT22;52402;52.670;6.750;2022-10-16T05:49:36;12.40;99.90
60293;DHT22;52402;52.670;6.750;2022-10-16T05:52:01;12.40;99.90
60293;DHT22;52402;52.670;6.750;2022-10-16T05:54:27;12.40;99.90
60293;DHT22;52402;52.670;6.750;2022-10-16T05:56:53;12.40;99.90
60293;DHT22;52402;52.670;6.750;2022-10-16T05:59:18;12.40;99.90
60293;DHT22;52402;52.670;6.750;2022-10-16T06:01:44;12.30;99.90
60293;DHT22;52402;52.670;6.750;2022-10-16T06:04:09;12.40;99.90
60293;DHT22;52402;52.670;6.750;2022-10-16T06:06:35;12.30;99.90
60293;DHT22;52402;52.670;6.750;2022-10-16T06:09:02;12.40;99.90
60293;DHT22;52402;52.670;6.750;2022-10-16T06:11:30;12.40;99.90
60293;DHT22;52402;52.670;6.750;2022-10-16T06:13:57;12.40;99.90
60293;DHT22;52402;52.670;6.750;2022-10-16T06:16:25;12.40;99.90
60293;DHT22;52402;52.670;6.750;2022-10-16T06:18:51;12.40;99.90
60293;DHT22;52402;52.670;6.750;2022-10-16T06:21:19;12.40;99.90
60293;DHT22;52402;52.670;6.750;2022-10-16T06:23:46;12.40;99.90
60293;DHT22;52402;52.670;6.750;2022-10-16T06:26:16;12.40;99.90
60293;DHT22;52402;52.670;6.750;2022-10-16T06:28:43;12.50;99.90
60293;DHT22;52402;52.670;6.750;2022-10-16T06:31:11;12.50;99.90
60293;DHT22;52402;52.670;6.750;2022-10-16T06:33:37;12.50;99.90
60293;DHT22;52402;52.670;6.750;2022-10-16T06:36:04;12.50;99.90
60293;DHT22;52402;52.670;6.750;2022-10-16T06:38:30;12.50;99.90
60293;DHT22;52402;52.670;6.750;2022-10-16T06:40:57;12.60;99.90
60293;DHT22;52402;52.670;6.750;2022-10-16T06:43:22;12.50;99.90
60293;DHT22;52402;52.670;6.750;2022-10-16T06:45:55;12.60;99.90
60293;DHT22;52402;52.670;6.750;2022-10-16T06:48:21;12.60;99.90
60293;DHT22;52402;52.670;6.750;2022-10-16T06:51:04;12.60;99.90
60293;DHT22;52402;52.670;6.750;2022-10-16T06:53:33;12.60;99.90
60293;DHT22;52402;52.670;6.750;2022-10-16T06:56:09;12.60;99.90
60293;DHT22;52402;52.670;6.750;2022-10-16T06:58:35;12.60;99.90
60293;DHT22;52402;52.670;6.750;2022-10-16T07:01:01;12.60;99.90
60293;DHT22;52402;52.670;6.750;2022-10-16T07:03:26;12.60;99.90
60293;DHT22;52402;52.670;6.750;2022-10-16T07:05:52;12.60;99.90
60293;DHT22;52402;52.670;6.750;2022-10-16T07:08:18;12.60;99.90
60293;DHT22;52402;52.670;6.750;2022-10-16T07:10:43;12.70;99.90
60293;DHT22;52402;52.670;6.750;2022-10-16T07:13:09;12.70;99.90
60293;DHT22;52402;52.670;6.750;2022-10-16T07:15:38;12.80;99.90
60293;DHT22;52402;52.670;6.750;2022-10-16T07:18:04;12.80;99.90
60293;DHT22;52402;52.670;6.750;2022-10-16T07:20:29;12.90;99.90
60293;DHT22;52402;52.670;6.750;2022-10-16T07:22:55;13.00;99.90
60293;DHT22;52402;52.670;6.750;2022-10-16T07:25:20;13.10;99.90
60293;DHT22;52402;52.670;6.750;2022-10-16T07:27:46;13.10;99.90
60293;DHT22;52402;52.670;6.750;2022-10-16T07:30:12;13.10;99.90
60293;DHT22;52402;52.670;6.750;2022-10-16T07:32:37;13.10;99.90
60293;DHT22;52402;52.670;6.750;2022-10-16T07:35:03;13.20;99.90
60293;DHT22;52402;52.670;6.750;2022-10-16T07:37:29;13.20;99.90
60293;DHT22;52402;52.670;6.750;2022-10-16T07:39:54;13.20;99.90
60293;DHT22;52402;52.670;6.750;2022-10-16T07:42:20;13.30;99.90
60293;DHT22;52402;52.670;6.750;2022-10-16T07:44:46;13.30;99.90
60293;DHT22;52402;52.670;6.750;2022-10-16T07:47:11;13.30;99.90
60293;DHT22;52402;52.670;6.750;2022-10-16T07:49:37;13.40;99.90
60293;DHT22;52402;52.670;6.750;2022-10-16T07:52:03;13.40;99.90
60293;DHT22;52402;52.670;6.750;2022-10-16T07:54:28;13.50;99.90
60293;DHT22;52402;52.670;6.750;2022-10-16T07:56:54;13.50;99.90
60293;DHT22;52402;52.670;6.750;2022-10-16T07:59:19;13.50;99.90
60293;DHT22;52402;52.670;6.750;2022-10-16T08:01:45;13.60;99.90
60293;DHT22;52402;52.670;6.750;2022-10-16T08:04:10;13.60;99.90
60293;DHT22;52402;52.670;6.750;2022-10-16T08:06:38;13.60;99.90
60293;DHT22;52402;52.670;6.750;2022-10-16T08:09:05;13.70;99.90
60293;DHT22;52402;52.670;6.750;2022-10-16T08:11:32;13.70;99.90
60293;DHT22;52402;52.670;6.750;2022-10-16T08:13:57;13.70;99.90
60293;DHT22;52402;52.670;6.750;2022-10-16T08:16:23;13.80;99.90
60293;DHT22;52402;52.670;6.750;2022-10-16T08:18:49;13.90;99.90
60293;DHT22;52402;52.670;6.750;2022-10-16T08:21:18;13.90;99.90
60293;DHT22;52402;52.670;6.750;2022-10-16T08:23:44;14.00;99.90
60293;DHT22;52402;52.670;6.750;2022-10-16T08:26:11;14.00;99.90
60293;DHT22;52402;52.670;6.750;2022-10-16T08:28:37;14.00;99.90
60293;DHT22;52402;52.670;6.750;2022-10-16T08:31:14;14.10;99.90
60293;DHT22;52402;52.670;6.750;2022-10-16T08:33:41;14.20;99.90
60293;DHT22;52402;52.670;6.750;2022-10-16T08:36:10;14.20;99.90
60293;DHT22;52402;52.670;6.750;2022-10-16T08:38:36;14.20;99.90
60293;DHT22;52402;52.670;6.750;2022-10-16T08:41:28;14.30;99.90
60293;DHT22;52402;52.670;6.750;2022-10-16T08:46:47;14.30;99.90
60293;DHT22;52402;52.670;6.750;2022-10-16T08:49:16;14.40;99.90
60293;DHT22;52402;52.670;6.750;2022-10-16T08:51:43;14.40;99.90
60293;DHT22;52402;52.670;6.750;2022-10-16T08:57:04;14.40;99.90
60293;DHT22;52402;52.670;6.750;2022-10-16T08:59:33;14.40;99.90
60293;DHT22;52402;52.670;6.750;2022-10-16T09:01:58;14.40;99.90
60293;DHT22;52402;52.670;6.750;2022-10-16T09:04:41;14.40;99.90
60293;DHT22;52402;52.670;6.750;2022-10-16T09:10:13;14.40;99.90
60293;DHT22;52402;52.670;6.750;2022-10-16T09:15:27;14.50;99.90
60293;DHT22;52402;52.670;6.750;2022-10-16T09:18:00;14.50;99.90
60293;DHT22;52402;52.670;6.750;2022-10-16T09:23:28;14.60;99.90
60293;DHT22;52402;52.670;6.750;2022-10-16T09:25:55;14.70;99.90
60293;DHT22;52402;52.670;6.750;2022-10-16T09:28:23;14.70;99.90
60293;DHT22;52402;52.670;6.750;2022-10-16T09:30:49;14.80;99.90
60293;DHT22;52402;52.670;6.750;2022-10-16T09:33:17;14.80;99.90
60293;DHT22;52402;52.670;6.750;2022-10-16T09:35:45;14.80;99.90
60293;DHT22;52402;52.670;6.750;2022-10-16T09:38:29;14.80;99.90
60293;DHT22;52402;52.670;6.750;2022-10-16T09:41:00;14.90;99.90
60293;DHT22;52402;52.670;6.750;2022-10-16T09:46:32;15.00;99.90
60293;DHT22;52402;52.670;6.750;2022-10-16T09:49:03;15.00;99.90
60293;DHT22;52402;52.670;6.750;2022-10-16T09:51:35;15.10;99.90
60293;DHT22;52402;52.670;6.750;2022-10-16T09:56:32;15.10;99.90
60293;DHT22;52402;52.670;6.750;2022-10-16T10:01:49;15.20;99.90
60293;DHT22;52402;52.670;6.750;2022-10-16T10:04:16;15.20;99.90
60293;DHT22;52402;52.670;6.750;2022-10-16T10:06:45;15.30;99.90
60293;DHT22;52402;52.670;6.750;2022-10-16T10:09:34;15.30;99.90
60293;DHT22;52402;52.670;6.750;2022-10-16T10:12:04;15.40;99.90
60293;DHT22;52402;52.670;6.750;2022-10-16T10:14:39;15.40;99.90
60293;DHT22;52402;52.670;6.750;2022-10-16T10:22:45;15.50;99.90
60293;DHT22;52402;52.670;6.750;2022-10-16T10:41:01;15.90;99.90
60293;DHT22;52402;52.670;6.750;2022-10-16T10:46:36;16.20;99.90
60293;DHT22;52402;52.670;6.750;2022-10-16T11:03:36;16.60;99.90
60293;DHT22;52402;52.670;6.750;2022-10-16T11:06:17;16.70;99.90
60293;DHT22;52402;52.670;6.750;2022-10-16T11:11:41;16.90;99.90
60293;DHT22;52402;52.670;6.750;2022-10-16T11:14:24;17.00;99.90
60293;DHT22;52402;52.670;6.750;2022-10-16T11:17:13;17.00;99.90
60293;DHT22;52402;52.670;6.750;2022-10-16T11:19:59;17.10;99.90
60293;DHT22;52402;52.670;6.750;2022-10-16T11:25:30;17.10;99.90
60293;DHT22;52402;52.670;6.750;2022-10-16T11:28:27;17.00;99.90
60293;DHT22;52402;52.670;6.750;2022-10-16T11:33:39;17.00;99.90
60293;DHT22;52402;52.670;6.750;2022-10-16T11:36:25;16.90;99.90
60293;DHT22;52402;52.670;6.750;2022-10-16T11:50:25;17.30;99.90
60293;DHT22;52402;52.670;6.750;2022-10-16T11:55:26;17.40;99.90
60293;DHT22;52402;52.670;6.750;2022-10-16T12:00:58;17.10;99.90
60293;DHT22;52402;52.670;6.750;2022-10-16T12:03:35;16.90;99.90
60293;DHT22;52402;52.670;6.750;2022-10-16T12:09:00;16.60;99.90
60293;DHT22;52402;52.670;6.750;2022-10-16T12:16:56;16.80;99.90
60293;DHT22;52402;52.670;6.750;2022-10-16T12:19:23;16.90;99.90
60293;DHT22;52402;52.670;6.750;2022-10-16T12:21:51;17.00;99.90
60293;DHT22;52402;52.670;6.750;2022-10-16T12:26:58;17.00;99.90
60293;DHT22;52402;52.670;6.750;2022-10-16T12:29:32;17.20;99.90
60293;DHT22;52402;52.670;6.750;2022-10-16T12:31:59;17.30;99.90
60293;DHT22;52402;52.670;6.750;2022-10-16T12:34:38;17.40;99.90
60293;DHT22;52402;52.670;6.750;2022-10-16T12:39:36;17.60;99.90
60293;DHT22;52402;52.670;6.750;2022-10-16T12:42:05;17.70;99.90
60293;DHT22;52402;52.670;6.750;2022-10-16T12:44:34;17.80;99.90
60293;DHT22;52402;52.670;6.750;2022-10-16T12:47:02;17.90;99.90
60293;DHT22;52402;52.670;6.750;2022-10-16T12:51:54;17.80;99.90
60293;DHT22;52402;52.670;6.750;2022-10-16T12:54:26;17.70;99.90
60293;DHT22;52402;52.670;6.750;2022-10-16T13:00:02;17.40;99.90
60293;DHT22;52402;52.670;6.750;2022-10-16T13:06:08;17.40;99.90
60293;DHT22;52402;52.670;6.750;2022-10-16T13:09:19;17.40;99.90
60293;DHT22;52402;52.670;6.750;2022-10-16T13:14:17;17.40;99.90
60293;DHT22;52402;52.670;6.750;2022-10-16T13:20:03;17.30;99.90
60293;DHT22;52402;52.670;6.750;2022-10-16T13:22:42;17.40;99.90
60293;DHT22;52402;52.670;6.750;2022-10-16T13:28:07;17.40;99.90
60293;DHT22;52402;52.670;6.750;2022-10-16T13:30:40;17.40;99.90
60293;DHT22;52402;52.670;6.750;2022-10-16T13:33:17;17.40;99.90
60293;DHT22;52402;52.670;6.750;2022-10-16T13:35:49;17.30;99.90
60293;DHT22;52402;52.670;6.750;2022-10-16T13:40:57;17.30;99.90
60293;DHT22;52402;52.670;6.750;2022-10-16T13:43:42;17.20;99.90
60293;DHT22;52402;52.670;6.750;2022-10-16T13:46:19;17.10;99.90
60293;DHT22;52402;52.670;6.750;2022-10-16T13:48:57;17.00;99.90
60293;DHT22;52402;52.670;6.750;2022-10-16T13:51:23;16.90;99.90
60293;DHT22;52402;52.670;6.750;2022-10-16T13:53:49;16.80;99.90
60293;DHT22;52402;52.670;6.750;2022-10-16T13:56:17;16.80;99.90
60293;DHT22;52402;52.670;6.750;2022-10-16T13:58:44;16.80;99.90
60293;DHT22;52402;52.670;6.750;2022-10-16T14:01:19;16.90;99.90
60293;DHT22;52402;52.670;6.750;2022-10-16T14:03:46;16.90;99.90
60293;DHT22;52402;52.670;6.750;2022-10-16T14:06:19;16.90;99.90
60293;DHT22;52402;52.670;6.750;2022-10-16T14:08:59;17.00;99.90
60293;DHT22;52402;52.670;6.750;2022-10-16T14:11:25;17.00;99.90
60293;DHT22;52402;52.670;6.750;2022-10-16T14:13:52;17.00;99.90
60293;DHT22;52402;52.670;6.750;2022-10-16T14:16:23;17.10;99.90
60293;DHT22;52402;52.670;6.750;2022-10-16T14:19:01;17.10;99.90
60293;DHT22;52402;52.670;6.750;2022-10-16T14:21:28;17.10;99.90
60293;DHT22;52402;52.670;6.750;2022-10-16T14:23:54;17.10;99.90
60293;DHT22;52402;52.670;6.750;2022-10-16T14:26:22;17.00;99.90
60293;DHT22;52402;52.670;6.750;2022-10-16T14:28:49;17.10;99.90
60293;DHT22;52402;52.670;6.750;2022-10-16T14:31:29;17.00;99.90
60293;DHT22;52402;52.670;6.750;2022-10-16T14:33:55;17.00;99.90
60293;DHT22;52402;52.670;6.750;2022-10-16T14:36:20;17.00;99.90
60293;DHT22;52402;52.670;6.750;2022-10-16T14:39:17;17.00;99.90
60293;DHT22;52402;52.670;6.750;2022-10-16T14:41:47;17.00;99.90
60293;DHT22;52402;52.670;6.750;2022-10-16T14:44:13;17.00;99.90
60293;DHT22;52402;52.670;6.750;2022-10-16T14:46:41;17.00;99.90
60293;DHT22;52402;52.670;6.750;2022-10-16T14:51:40;16.90;99.90
60293;DHT22;52402;52.670;6.750;2022-10-16T14:54:09;16.90;99.90
60293;DHT22;52402;52.670;6.750;2022-10-16T14:56:52;16.90;99.90
60293;DHT22;52402;52.670;6.750;2022-10-16T14:59:33;16.90;99.90
60293;DHT22;52402;52.670;6.750;2022-10-16T15:02:09;16.90;99.90
60293;DHT22;52402;52.670;6.750;2022-10-16T15:04:38;16.90;99.90
60293;DHT22;52402;52.670;6.750;2022-10-16T15:07:03;16.80;99.90
60293;DHT22;52402;52.670;6.750;2022-10-16T15:09:29;16.80;99.90
60293;DHT22;52402;52.670;6.750;2022-10-16T15:11:55;16.70;99.90
60293;DHT22;52402;52.670;6.750;2022-10-16T15:14:20;16.70;99.90
60293;DHT22;52402;52.670;6.750;2022-10-16T15:16:46;16.70;99.90
60293;DHT22;52402;52.670;6.750;2022-10-16T15:19:11;16.70;99.90
60293;DHT22;52402;52.670;6.750;2022-10-16T15:21:37;16.70;99.90
60293;DHT22;52402;52.670;6.750;2022-10-16T15:24:05;16.60;99.90
60293;DHT22;52402;52.670;6.750;2022-10-16T15:26:33;16.50;99.90
60293;DHT22;52402;52.670;6.750;2022-10-16T15:28:59;16.40;99.90
60293;DHT22;52402;52.670;6.750;2022-10-16T15:31:24;16.40;99.90
60293;DHT22;52402;52.670;6.750;2022-10-16T15:33:52;16.40;99.90
60293;DHT22;52402;52.670;6.750;2022-10-16T15:36:30;16.40;99.90
60293;DHT22;52402;52.670;6.750;2022-10-16T15:38:56;16.30;99.90
60293;DHT22;52402;52.670;6.750;2022-10-16T15:41:22;16.20;99.90
60293;DHT22;52402;52.670;6.750;2022-10-16T15:43:49;16.20;99.90
60293;DHT22;52402;52.670;6.750;2022-10-16T15:46:20;16.10;99.90
60293;DHT22;52402;52.670;6.750;2022-10-16T15:48:47;16.00;99.90
60293;DHT22;52402;52.670;6.750;2022-10-16T15:51:13;16.00;99.90
60293;DHT22;52402;52.670;6.750;2022-10-16T15:53:39;15.90;99.90
60293;DHT22;52402;52.670;6.750;2022-10-16T15:56:07;15.80;99.90
60293;DHT22;52402;52.670;6.750;2022-10-16T15:58:33;15.80;99.90
60293;DHT22;52402;52.670;6.750;2022-10-16T16:01:00;15.70;99.90
60293;DHT22;52402;52.670;6.750;2022-10-16T16:03:27;15.70;99.90
60293;DHT22;52402;52.670;6.750;2022-10-16T16:05:53;15.60;99.90
60293;DHT22;52402;52.670;6.750;2022-10-16T16:08:19;15.60;99.90
60293;DHT22;52402;52.670;6.750;2022-10-16T16:10:45;15.50;99.90
60293;DHT22;52402;52.670;6.750;2022-10-16T16:13:10;15.40;99.90
60293;DHT22;52402;52.670;6.750;2022-10-16T16:15:39;15.30;99.90
60293;DHT22;52402;52.670;6.750;2022-10-16T16:18:05;15.20;99.90
60293;DHT22;52402;52.670;6.750;2022-10-16T16:20:31;15.20;99.90
60293;DHT22;52402;52.670;6.750;2022-10-16T16:22:57;15.10;99.90
60293;DHT22;52402;52.670;6.750;2022-10-16T16:25:23;15.00;99.90
60293;DHT22;52402;52.670;6.750;2022-10-16T16:27:48;14.90;99.90
60293;DHT22;52402;52.670;6.750;2022-10-16T16:30:14;14.90;99.90
60293;DHT22;52402;52.670;6.750;2022-10-16T16:32:40;14.80;99.90
60293;DHT22;52402;52.670;6.750;2022-10-16T16:35:06;14.70;99.90
60293;DHT22;52402;52.670;6.750;2022-10-16T16:37:31;14.60;99.90
60293;DHT22;52402;52.670;6.750;2022-10-16T16:39:57;14.60;99.90
60293;DHT22;52402;52.670;6.750;2022-10-16T16:42:26;14.50;99.90
60293;DHT22;52402;52.670;6.750;2022-10-16T16:44:52;14.40;99.90
60293;DHT22;52402;52.670;6.750;2022-10-16T16:47:18;14.30;99.90
60293;DHT22;52402;52.670;6.750;2022-10-16T16:49:44;14.30;99.90
60293;DHT22;52402;52.670;6.750;2022-10-16T16:52:12;14.30;99.90
60293;DHT22;52402;52.670;6.750;2022-10-16T16:54:40;14.20;99.90
60293;DHT22;52402;52.670;6.750;2022-10-16T16:57:06;14.20;99.90
60293;DHT22;52402;52.670;6.750;2022-10-16T16:59:32;14.10;99.90
60293;DHT22;52402;52.670;6.750;2022-10-16T17:02:02;14.00;99.90
60293;DHT22;52402;52.670;6.750;2022-10-16T17:04:28;14.00;99.90
60293;DHT22;52402;52.670;6.750;2022-10-16T17:06:55;13.90;99.90
60293;DHT22;52402;52.670;6.750;2022-10-16T17:09:21;13.80;99.90
60293;DHT22;52402;52.670;6.750;2022-10-16T17:11:47;13.80;99.90
60293;DHT22;52402;52.670;6.750;2022-10-16T17:14:14;13.70;99.90
60293;DHT22;52402;52.670;6.750;2022-10-16T17:16:40;13.60;99.90
60293;DHT22;52402;52.670;6.750;2022-10-16T17:19:11;13.50;99.90
60293;DHT22;52402;52.670;6.750;2022-10-16T17:21:37;13.50;99.90
60293;DHT22;52402;52.670;6.750;2022-10-16T17:24:03;13.40;99.90
60293;DHT22;52402;52.670;6.750;2022-10-16T17:26:29;13.30;99.90
60293;DHT22;52402;52.670;6.750;2022-10-16T17:28:57;13.30;99.90
60293;DHT22;52402;52.670;6.750;2022-10-16T17:31:29;13.20;99.90
60293;DHT22;52402;52.670;6.750;2022-10-16T17:33:56;13.10;99.90
60293;DHT22;52402;52.670;6.750;2022-10-16T17:36:22;13.00;99.90
60293;DHT22;52402;52.670;6.750;2022-10-16T17:38:48;13.00;99.90
60293;DHT22;52402;52.670;6.750;2022-10-16T17:41:21;13.00;99.90
60293;DHT22;52402;52.670;6.750;2022-10-16T17:43:48;12.90;99.90
60293;DHT22;52402;52.670;6.750;2022-10-16T17:46:15;12.90;99.90
60293;DHT22;52402;52.670;6.750;2022-10-16T17:48:47;12.90;99.90
60293;DHT22;52402;52.670;6.750;2022-10-16T17:51:15;12.80;99.90
60293;DHT22;52402;52.670;6.750;2022-10-16T17:53:41;12.80;99.90
60293;DHT22;52402;52.670;6.750;2022-10-16T17:56:12;12.80;99.90
60293;DHT22;52402;52.670;6.750;2022-10-16T17:58:38;12.70;99.90